KPTN/PTN METAR and TAF weather

Enter ICAO airport designator
Station Type Date Time Source
KPTN METAR 2019/02/17 07:56 UTC NOAA

KPTN 170756Z AUTO 16005KT 10SM OVC020 20/19 A2975 RMK AO2 SLP076 T02000194


Station Type Date Time Source
KPTN Decoded METAR 2019/02/17 07:56 UTC NOAA

Patterson Memorial, LA, United States (KPTN) 29-43N 091-20W
Feb 17, 2019 - 02:56 AM EST / 2019.02.17 0756 UTC
Wind: from the SSE (160 degrees) at 6 MPH (5 KT):0
Visibility: 10 mile(s):0
Sky conditions: overcast
Temperature: 68.0 F (20.0 C)
Dew Point: 66.9 F (19.4 C)
Relative Humidity: 96%
Pressure (altimeter): 29.75 in. Hg (1007 hPa)
ob: KPTN 170756Z AUTO 16005KT 10SM OVC020 20/19 A2975 RMK AO2 SLP076 T02000194
cycle: 8

Station Type Date Time Source
KPTN TAF UTC NOAA

Error!


Example: see airport list